METAR / TAF

ENOV 172120Z VRB01KT CAVOK M02/M06 Q1010 RMK WIND RWY24 00000KT WIND 2090FT 08003KT


ENSD 172120Z VRB03KT CAVOK 06/M08 Q1010 RMK WIND RWY26 19005KT WIND 1140FT 08009KT


ENAL 172120Z 13015KT CAVOK 10/M08 Q1010


ENML 172120Z 08015KT CAVOK 07/M06 Q1011